Time;durP1;ratioP1;P1;durP2;ratioP2;P2;SDS_P1;SDS_P2;PMS_P1;PMS_P2;Temp;Humidity;BMP_temperature;BMP_pressure;BME280_temperature;BME280_humidity;BME280_pressure;Samples;Min_cycle;Max_cycle;Signal;HPM_P1;HPM_P2
2022/04/10 00:01:34;;;;;;;7.70;2.38;;;;;;;;;;5021369;28;20464;-72
2022/04/10 00:04:00;;;;;;;9.15;2.15;;;;;;;;;;5014027;28;20116;-73
2022/04/10 00:06:26;;;;;;;6.95;2.00;;;;;;;;;;5016343;28;20057;-73
2022/04/10 00:08:53;;;;;;;5.45;2.15;;;;;;;;;;5014203;28;20416;-73
2022/04/10 00:11:19;;;;;;;5.90;1.95;;;;;;;;;;5010459;28;20166;-73
2022/04/10 00:13:45;;;;;;;7.22;1.77;;;;;;;;;;5013312;28;20037;-73
2022/04/10 00:16:13;;;;;;;5.72;1.83;;;;;;;;;;5012739;28;20630;-73
2022/04/10 00:18:39;;;;;;;3.17;1.42;;;;;;;;;;5021690;28;20049;-73
2022/04/10 00:21:05;;;;;;;7.75;2.17;;;;;;;;;;5017446;28;20464;-74
2022/04/10 00:23:32;;;;;;;3.40;1.75;;;;;;;;;;5013958;28;20034;-73
2022/04/10 00:25:57;;;;;;;6.00;1.88;;;;;;;;;;5012785;28;20042;-74
2022/04/10 00:28:23;;;;;;;8.40;2.13;;;;;;;;;;5012338;28;20538;-73
2022/04/10 00:30:49;;;;;;;5.00;1.95;;;;;;;;;;5013426;28;20449;-73
2022/04/10 00:33:15;;;;;;;4.55;1.80;;;;;;;;;;5013657;28;20060;-73
2022/04/10 00:35:41;;;;;;;7.88;2.30;;;;;;;;;;5020652;28;20018;-73
2022/04/10 00:38:07;;;;;;;4.88;2.08;;;;;;;;;;5020923;28;20151;-73
2022/04/10 00:40:33;;;;;;;8.07;2.03;;;;;;;;;;5012828;28;20029;-73
2022/04/10 00:42:59;;;;;;;3.45;1.98;;;;;;;;;;5012821;28;20037;-74
2022/04/10 00:45:25;;;;;;;7.28;2.00;;;;;;;;;;5019896;28;20087;-73
2022/04/10 00:47:51;;;;;;;4.35;2.20;;;;;;;;;;5010636;28;20045;-73
2022/04/10 00:50:18;;;;;;;7.13;2.50;;;;;;;;;;5004900;28;20022;-73
2022/04/10 00:52:45;;;;;;;5.20;2.30;;;;;;;;;;5011053;28;20026;-73
2022/04/10 00:55:11;;;;;;;4.90;2.15;;;;;;;;;;5008967;28;20037;-72
2022/04/10 00:57:37;;;;;;;4.65;2.47;;;;;;;;;;5009075;28;20033;-74
2022/04/10 01:00:05;;;;;;;12.77;2.83;;;;;;;;;;5005387;28;20029;-73
2022/04/10 01:02:31;;;;;;;8.75;2.70;;;;;;;;;;5011588;28;20405;-72
2022/04/10 01:04:57;;;;;;;8.35;2.50;;;;;;;;;;5012068;28;20030;-73
2022/04/10 01:07:23;;;;;;;7.60;2.40;;;;;;;;;;5009412;28;20504;-72
2022/04/10 01:09:49;;;;;;;9.55;2.97;;;;;;;;;;5012202;28;20025;-72
2022/04/10 01:12:14;;;;;;;7.57;2.70;;;;;;;;;;5013273;28;20044;-73
2022/04/10 01:14:41;;;;;;;8.60;2.85;;;;;;;;;;5011753;28;20030;-73
2022/04/10 01:17:10;;;;;;;4.85;2.42;;;;;;;;;;5021799;28;20087;-73
2022/04/10 01:19:38;;;;;;;3.60;2.40;;;;;;;;;;5014146;28;20500;-74
2022/04/10 01:22:05;;;;;;;5.28;2.75;;;;;;;;;;5010946;28;20034;-73
2022/04/10 01:24:32;;;;;;;8.75;2.92;;;;;;;;;;5010887;28;20041;-73
2022/04/10 01:26:59;;;;;;;8.23;2.53;;;;;;;;;;5018012;28;20037;-73
2022/04/10 01:29:28;;;;;;;9.18;2.97;;;;;;;;;;5014691;28;20037;-73
2022/04/10 01:31:54;;;;;;;6.40;2.60;;;;;;;;;;5021431;28;20030;-72
2022/04/10 01:34:20;;;;;;;8.70;2.92;;;;;;;;;;5025164;28;20468;-73
2022/04/10 01:36:46;;;;;;;10.50;2.95;;;;;;;;;;5023037;28;20030;-73
2022/04/10 01:39:15;;;;;;;5.82;3.25;;;;;;;;;;5011187;28;20014;-73
2022/04/10 01:41:41;;;;;;;9.77;2.85;;;;;;;;;;5011221;28;20137;-72
2022/04/10 01:44:07;;;;;;;8.73;2.83;;;;;;;;;;5022081;28;20077;-73
2022/04/10 01:46:33;;;;;;;10.05;2.97;;;;;;;;;;5025680;28;20099;-73
2022/04/10 01:49:00;;;;;;;7.22;3.30;;;;;;;;;;5028643;28;20030;-72
2022/04/10 01:51:26;;;;;;;12.88;2.95;;;;;;;;;;5019101;28;20057;-72
2022/04/10 01:53:53;;;;;;;7.85;3.03;;;;;;;;;;5011602;28;20025;-73
2022/04/10 01:56:19;;;;;;;7.55;3.08;;;;;;;;;;5010675;28;20026;-73
2022/04/10 01:58:46;;;;;;;10.75;2.78;;;;;;;;;;5010918;28;20380;-73
2022/04/10 02:01:12;;;;;;;5.50;2.70;;;;;;;;;;5020536;28;20642;-72
2022/04/10 02:03:39;;;;;;;9.38;2.67;;;;;;;;;;5002936;28;20038;-72
2022/04/10 02:06:05;;;;;;;10.40;2.70;;;;;;;;;;5010341;28;20041;-73
2022/04/10 02:08:31;;;;;;;6.63;2.70;;;;;;;;;;5010384;28;20058;-72
2022/04/10 02:10:57;;;;;;;6.47;2.60;;;;;;;;;;5010783;28;20060;-72
2022/04/10 02:13:24;;;;;;;9.77;2.50;;;;;;;;;;5010241;28;20058;-72
2022/04/10 02:15:50;;;;;;;10.10;2.78;;;;;;;;;;5010493;28;20038;-73
2022/04/10 02:18:16;;;;;;;6.80;2.70;;;;;;;;;;5014471;28;20054;-73
2022/04/10 02:20:42;;;;;;;9.52;2.88;;;;;;;;;;5009535;28;20546;-73
2022/04/10 02:23:08;;;;;;;7.68;2.90;;;;;;;;;;5021880;28;20029;-73
2022/04/10 02:25:34;;;;;;;12.68;2.47;;;;;;;;;;5018569;28;20096;-73
2022/04/10 02:28:00;;;;;;;5.50;2.42;;;;;;;;;;5010472;28;20030;-73
2022/04/10 02:30:26;;;;;;;10.40;2.63;;;;;;;;;;5010313;28;20054;-72
2022/04/10 02:32:52;;;;;;;7.18;2.92;;;;;;;;;;5012843;28;20018;-73
2022/04/10 02:35:18;;;;;;;13.85;2.95;;;;;;;;;;5015218;28;20498;-72
2022/04/10 02:37:47;;;;;;;6.13;3.00;;;;;;;;;;5019875;28;20072;-72
2022/04/10 02:40:18;;;;;;;10.75;3.20;;;;;;;;;;5010482;28;20064;-73
2022/04/10 02:42:43;;;;;;;7.93;2.92;;;;;;;;;;5027547;28;20037;-73
2022/04/10 02:45:10;;;;;;;11.68;3.35;;;;;;;;;;5017079;28;20049;-73
2022/04/10 02:47:35;;;;;;;5.78;3.08;;;;;;;;;;5008999;28;20041;-72
2022/04/10 02:50:01;;;;;;;8.60;3.08;;;;;;;;;;5009938;28;20477;-73
2022/04/10 02:52:27;;;;;;;7.47;3.05;;;;;;;;;;5020684;28;20037;-73
2022/04/10 02:54:53;;;;;;;8.95;3.13;;;;;;;;;;5018803;28;20116;-72
2022/04/10 02:57:19;;;;;;;10.10;3.40;;;;;;;;;;5019948;28;20029;-73
2022/04/10 02:59:45;;;;;;;9.05;3.83;;;;;;;;;;5018589;28;20037;-73
2022/04/10 03:02:11;;;;;;;7.55;3.35;;;;;;;;;;5009154;28;20386;-73
2022/04/10 03:04:37;;;;;;;10.07;3.35;;;;;;;;;;5009936;28;20496;-72
2022/04/10 03:07:03;;;;;;;9.52;3.55;;;;;;;;;;5013456;28;20128;-72
2022/04/10 03:09:29;;;;;;;12.13;3.60;;;;;;;;;;5009371;28;20042;-73
2022/04/10 03:11:55;;;;;;;12.43;4.43;;;;;;;;;;5006617;28;20172;-73
2022/04/10 03:14:22;;;;;;;10.32;3.35;;;;;;;;;;5007339;28;20048;-72
2022/04/10 03:16:48;;;;;;;10.38;3.55;;;;;;;;;;5007032;28;20022;-72
2022/04/10 03:19:14;;;;;;;9.95;3.38;;;;;;;;;;5009289;28;20018;-73
2022/04/10 03:21:40;;;;;;;7.72;3.38;;;;;;;;;;5018699;28;20401;-73
2022/04/10 03:24:06;;;;;;;9.05;3.60;;;;;;;;;;5015278;28;20037;-73
2022/04/10 03:26:32;;;;;;;9.73;3.50;;;;;;;;;;5018873;28;20044;-73
2022/04/10 03:28:58;;;;;;;9.48;3.50;;;;;;;;;;5029446;28;20471;-73
2022/04/10 03:31:24;;;;;;;12.13;3.40;;;;;;;;;;5011969;28;20049;-72
2022/04/10 03:33:50;;;;;;;9.23;3.47;;;;;;;;;;5006553;28;20064;-72
2022/04/10 03:36:16;;;;;;;7.82;3.30;;;;;;;;;;5009132;28;20022;-72
2022/04/10 03:38:43;;;;;;;7.63;3.03;;;;;;;;;;5009182;28;20121;-72
2022/04/10 03:41:08;;;;;;;10.40;3.30;;;;;;;;;;5009862;28;20026;-72
2022/04/10 03:43:34;;;;;;;12.05;3.33;;;;;;;;;;5012041;28;20028;-72
2022/04/10 03:46:01;;;;;;;8.43;2.67;;;;;;;;;;5007633;28;20029;-72
2022/04/10 03:48:27;;;;;;;9.15;3.17;;;;;;;;;;5018137;28;20026;-73
2022/04/10 03:50:53;;;;;;;7.68;2.95;;;;;;;;;;5009757;28;20030;-73
2022/04/10 03:53:19;;;;;;;12.35;3.00;;;;;;;;;;5009110;28;20140;-73
2022/04/10 03:55:45;;;;;;;8.35;3.10;;;;;;;;;;5008852;28;20037;-72
2022/04/10 03:58:11;;;;;;;11.18;3.13;;;;;;;;;;5015247;28;20034;-72
2022/04/10 04:00:37;;;;;;;10.25;3.40;;;;;;;;;;5018189;28;20224;-73
2022/04/10 04:03:03;;;;;;;9.25;3.25;;;;;;;;;;5015214;28;20026;-73
2022/04/10 04:05:29;;;;;;;13.43;3.65;;;;;;;;;;5007881;28;20389;-74
2022/04/10 04:07:56;;;;;;;8.02;3.17;;;;;;;;;;5009078;28;20050;-74
2022/04/10 04:10:22;;;;;;;15.10;3.28;;;;;;;;;;5008948;28;20030;-73
2022/04/10 04:12:48;;;;;;;9.18;2.95;;;;;;;;;;5018245;28;20088;-73
2022/04/10 04:15:14;;;;;;;10.75;2.90;;;;;;;;;;5013280;28;20040;-73
2022/04/10 04:17:40;;;;;;;9.07;2.92;;;;;;;;;;5002809;28;20026;-73
2022/04/10 04:20:06;;;;;;;9.57;2.88;;;;;;;;;;5018897;28;20022;-73
2022/04/10 04:22:32;;;;;;;14.95;3.08;;;;;;;;;;5003564;28;20038;-73
2022/04/10 04:24:58;;;;;;;10.93;3.17;;;;;;;;;;5013719;28;20040;-73
2022/04/10 04:27:24;;;;;;;12.02;3.63;;;;;;;;;;5008645;28;20033;-74
2022/04/10 04:29:50;;;;;;;8.57;3.60;;;;;;;;;;5018987;28;20038;-73
2022/04/10 04:32:16;;;;;;;10.20;2.88;;;;;;;;;;5011050;28;20053;-72
2022/04/10 04:34:41;;;;;;;10.93;2.95;;;;;;;;;;5008576;28;20121;-72
2022/04/10 04:37:09;;;;;;;12.30;3.20;;;;;;;;;;5008275;28;20460;-73
2022/04/10 04:39:35;;;;;;;13.50;3.53;;;;;;;;;;5020020;28;20060;-73
2022/04/10 04:42:01;;;;;;;11.88;3.15;;;;;;;;;;5013968;28;20481;-73
2022/04/10 04:44:26;;;;;;;13.25;3.30;;;;;;;;;;5007258;28;20038;-73
2022/04/10 04:46:52;;;;;;;15.43;3.60;;;;;;;;;;5019699;28;20034;-73
2022/04/10 04:49:18;;;;;;;11.73;2.75;;;;;;;;;;5019938;28;20110;-73
2022/04/10 04:51:44;;;;;;;11.35;2.95;;;;;;;;;;4999766;28;20033;-73
2022/04/10 04:54:10;;;;;;;12.93;4.15;;;;;;;;;;5021527;28;20481;-73
2022/04/10 04:56:36;;;;;;;8.15;2.65;;;;;;;;;;5008533;28;20026;-73
2022/04/10 04:59:02;;;;;;;15.02;3.55;;;;;;;;;;5024985;28;20125;-73
2022/04/10 05:01:28;;;;;;;8.25;3.70;;;;;;;;;;5012268;28;20064;-72
2022/04/10 05:03:54;;;;;;;16.58;3.42;;;;;;;;;;5015817;28;20241;-73
2022/04/10 05:06:20;;;;;;;15.07;3.00;;;;;;;;;;5011786;28;20029;-73
2022/04/10 05:08:49;;;;;;;9.77;2.90;;;;;;;;;;5018382;28;20061;-74
2022/04/10 05:11:15;;;;;;;8.95;2.75;;;;;;;;;;5015820;28;20515;-73
2022/04/10 05:13:41;;;;;;;15.75;3.58;;;;;;;;;;5007749;28;20057;-73
2022/04/10 05:16:07;;;;;;;10.68;3.00;;;;;;;;;;5023847;28;20068;-72
2022/04/10 05:18:33;;;;;;;12.05;2.80;;;;;;;;;;5017416;28;20025;-74
2022/04/10 05:20:59;;;;;;;10.30;2.70;;;;;;;;;;5018017;28;20463;-73
2022/04/10 05:23:25;;;;;;;15.50;3.65;;;;;;;;;;5011330;28;20288;-74
2022/04/10 05:25:51;;;;;;;9.82;3.45;;;;;;;;;;5011420;28;20041;-73
2022/04/10 05:28:17;;;;;;;16.40;3.40;;;;;;;;;;5011709;28;20022;-73
2022/04/10 05:30:44;;;;;;;13.48;3.10;;;;;;;;;;5014454;28;20029;-74
2022/04/10 05:33:10;;;;;;;12.82;3.20;;;;;;;;;;5011697;28;20034;-74
2022/04/10 05:35:36;;;;;;;12.20;3.25;;;;;;;;;;5011000;28;20021;-73
2022/04/10 05:38:03;;;;;;;11.68;2.80;;;;;;;;;;5024984;28;20018;-73
2022/04/10 05:40:29;;;;;;;11.43;3.20;;;;;;;;;;5015658;28;20018;-73
2022/04/10 05:42:55;;;;;;;7.75;2.90;;;;;;;;;;5024557;28;20037;-74
2022/04/10 05:45:21;;;;;;;10.40;3.22;;;;;;;;;;5009703;28;20415;-73
2022/04/10 05:47:46;;;;;;;9.65;2.90;;;;;;;;;;5011401;28;20029;-73
2022/04/10 05:50:13;;;;;;;13.02;3.17;;;;;;;;;;5010417;28;20502;-73
2022/04/10 05:52:40;;;;;;;17.42;3.38;;;;;;;;;;5010503;28;20080;-73
2022/04/10 05:55:06;;;;;;;10.98;3.10;;;;;;;;;;5010052;28;20030;-73
2022/04/10 05:57:32;;;;;;;11.18;2.75;;;;;;;;;;5025877;28;20021;-73
2022/04/10 05:59:58;;;;;;;15.00;3.28;;;;;;;;;;5011956;28;20849;-73
2022/04/10 06:02:24;;;;;;;9.57;2.90;;;;;;;;;;5010164;28;20018;-73
2022/04/10 06:04:50;;;;;;;13.55;3.10;;;;;;;;;;5010452;28;20046;-72
2022/04/10 06:07:16;;;;;;;11.98;3.40;;;;;;;;;;5015849;28;20120;-74
2022/04/10 06:09:42;;;;;;;10.55;2.80;;;;;;;;;;5013015;28;20053;-74
2022/04/10 06:12:08;;;;;;;6.88;2.85;;;;;;;;;;5014791;28;20033;-74
2022/04/10 06:14:34;;;;;;;10.38;2.83;;;;;;;;;;5025020;28;20030;-73
2022/04/10 06:17:00;;;;;;;16.92;3.25;;;;;;;;;;5010750;28;20026;-74
2022/04/10 06:19:27;;;;;;;9.55;2.95;;;;;;;;;;5010566;28;20057;-74
2022/04/10 06:21:53;;;;;;;14.10;3.00;;;;;;;;;;5009761;28;20461;-74
2022/04/10 06:24:20;;;;;;;10.57;3.08;;;;;;;;;;5011022;28;20054;-73
2022/04/10 06:26:48;;;;;;;11.93;3.17;;;;;;;;;;5010200;28;20036;-74
2022/04/10 06:29:14;;;;;;;9.20;2.67;;;;;;;;;;5016328;28;20442;-73
2022/04/10 06:31:40;;;;;;;14.30;3.00;;;;;;;;;;5009693;28;20041;-74
2022/04/10 06:34:06;;;;;;;11.23;3.03;;;;;;;;;;5011226;28;20026;-74
2022/04/10 06:36:32;;;;;;;12.25;3.03;;;;;;;;;;5017514;28;20014;-73
2022/04/10 06:38:58;;;;;;;13.15;3.25;;;;;;;;;;5017089;28;20029;-74
2022/04/10 06:41:24;;;;;;;7.90;2.72;;;;;;;;;;5009576;28;20030;-73
2022/04/10 06:43:50;;;;;;;10.55;3.08;;;;;;;;;;5008846;28;20033;-73
2022/04/10 06:46:16;;;;;;;6.80;2.97;;;;;;;;;;5019388;28;20029;-74
2022/04/10 06:48:42;;;;;;;10.60;2.75;;;;;;;;;;5013603;28;20041;-74
2022/04/10 06:51:07;;;;;;;9.57;3.08;;;;;;;;;;5009784;28;20465;-73
2022/04/10 06:53:34;;;;;;;16.30;3.33;;;;;;;;;;5011827;28;20108;-74
2022/04/10 06:55:59;;;;;;;13.60;2.75;;;;;;;;;;5017789;28;20030;-73
2022/04/10 06:58:25;;;;;;;8.52;2.80;;;;;;;;;;5009526;28;20033;-76
2022/04/10 07:00:51;;;;;;;14.43;2.85;;;;;;;;;;5016241;28;20503;-74
2022/04/10 07:03:17;;;;;;;19.67;3.38;;;;;;;;;;5008337;28;20025;-73
2022/04/10 07:05:44;;;;;;;10.55;2.85;;;;;;;;;;5008355;28;20071;-74
2022/04/10 07:08:10;;;;;;;14.68;3.17;;;;;;;;;;5001881;28;20474;-73
2022/04/10 07:10:37;;;;;;;9.45;2.78;;;;;;;;;;5007618;28;20032;-74
2022/04/10 07:13:03;;;;;;;13.73;2.85;;;;;;;;;;5008068;28;20072;-74
2022/04/10 07:15:29;;;;;;;12.45;3.20;;;;;;;;;;5008145;28;20033;-73
2022/04/10 07:17:56;;;;;;;11.48;2.70;;;;;;;;;;5006563;28;20018;-73
2022/04/10 07:20:22;;;;;;;13.90;3.25;;;;;;;;;;5008678;28;20381;-73
2022/04/10 07:25:33;;;;;;;14.25;3.58;;;;;;;;;;5007710;28;20161;-74
2022/04/10 07:27:58;;;;;;;10.77;2.63;;;;;;;;;;5008192;28;20484;-74
2022/04/10 07:30:24;;;;;;;10.27;2.90;;;;;;;;;;5007401;28;20105;-73
2022/04/10 07:32:51;;;;;;;13.35;3.00;;;;;;;;;;5006983;28;20029;-74
2022/04/10 07:35:17;;;;;;;9.77;2.60;;;;;;;;;;5007552;28;20105;-73
2022/04/10 07:37:43;;;;;;;6.82;2.35;;;;;;;;;;5007383;28;20180;-73
2022/04/10 07:40:10;;;;;;;8.18;2.50;;;;;;;;;;5005110;28;20026;-73
2022/04/10 07:42:39;;;;;;;12.38;2.80;;;;;;;;;;5007009;28;20396;-72
2022/04/10 07:45:06;;;;;;;9.48;2.65;;;;;;;;;;5005975;28;20033;-73
2022/04/10 07:47:32;;;;;;;10.27;2.92;;;;;;;;;;5006853;28;20029;-76
2022/04/10 07:49:58;;;;;;;8.73;2.50;;;;;;;;;;5006065;28;20034;-75
2022/04/10 07:52:24;;;;;;;7.20;2.83;;;;;;;;;;5006286;28;20033;-75
2022/04/10 07:54:52;;;;;;;11.48;2.80;;;;;;;;;;5006403;28;20022;-75
2022/04/10 07:57:18;;;;;;;10.15;2.38;;;;;;;;;;5006631;28;20537;-75
2022/04/10 07:59:44;;;;;;;13.90;2.95;;;;;;;;;;5002136;28;20037;-75
2022/04/10 08:02:10;;;;;;;10.00;2.47;;;;;;;;;;5005472;28;20037;-75
2022/04/10 08:04:36;;;;;;;13.23;3.40;;;;;;;;;;5006764;28;20037;-75
2022/04/10 08:07:02;;;;;;;14.35;2.80;;;;;;;;;;5004346;28;20026;-74
2022/04/10 08:09:28;;;;;;;12.82;3.40;;;;;;;;;;5004185;28;20100;-77
2022/04/10 08:11:54;;;;;;;9.00;2.90;;;;;;;;;;5004977;28;21320;-76
2022/04/10 08:14:20;;;;;;;14.55;3.50;;;;;;;;;;5005736;28;20022;-79
2022/04/10 08:16:46;;;;;;;11.35;2.90;;;;;;;;;;5004910;28;20022;-78
2022/04/10 08:19:12;;;;;;;12.00;3.00;;;;;;;;;;5006741;28;20040;-76
2022/04/10 08:21:38;;;;;;;10.88;3.05;;;;;;;;;;5005518;28;20396;-77
2022/04/10 08:24:04;;;;;;;12.65;3.25;;;;;;;;;;5006116;28;20034;-79
2022/04/10 08:26:30;;;;;;;12.52;2.83;;;;;;;;;;4999739;28;20440;-77
2022/04/10 08:28:56;;;;;;;14.20;2.80;;;;;;;;;;5004477;28;20022;-76
2022/04/10 08:31:23;;;;;;;11.90;3.17;;;;;;;;;;5004924;28;20376;-75
2022/04/10 08:33:51;;;;;;;16.35;3.08;;;;;;;;;;5010344;28;20477;-77
2022/04/10 08:36:17;;;;;;;11.02;2.92;;;;;;;;;;5009203;28;20029;-78
2022/04/10 08:38:43;;;;;;;9.32;3.10;;;;;;;;;;5007832;28;20092;-75
2022/04/10 08:41:09;;;;;;;17.33;3.13;;;;;;;;;;5010312;28;20144;-80
2022/04/10 08:43:36;;;;;;;13.90;2.80;;;;;;;;;;5009092;28;20032;-79
2022/04/10 08:46:04;;;;;;;17.13;3.22;;;;;;;;;;5007369;28;20034;-79
2022/04/10 08:48:30;;;;;;;12.23;2.83;;;;;;;;;;5005582;28;20049;-74
2022/04/10 08:50:57;;;;;;;10.80;2.65;;;;;;;;;;5007690;28;20042;-78
2022/04/10 08:53:26;;;;;;;13.48;2.67;;;;;;;;;;5009162;28;20033;-77
2022/04/10 08:55:52;;;;;;;13.30;2.70;;;;;;;;;;5008412;28;20139;-79
2022/04/10 08:58:21;;;;;;;10.10;2.55;;;;;;;;;;5010480;28;20080;-79
2022/04/10 09:00:47;;;;;;;7.07;2.60;;;;;;;;;;5009780;28;20030;-78
2022/04/10 09:03:13;;;;;;;13.52;2.72;;;;;;;;;;5009904;28;20104;-79
2022/04/10 09:05:40;;;;;;;10.55;2.72;;;;;;;;;;5008083;28;20560;-81
2022/04/10 09:08:13;;;;;;;13.00;2.83;;;;;;;;;;5007138;28;20133;-81
2022/04/10 09:10:59;;;;;;;11.90;3.28;;;;;;;;;;5010278;28;20033;-80
2022/04/10 09:13:26;;;;;;;13.55;3.30;;;;;;;;;;5006984;28;20506;-78
2022/04/10 09:15:53;;;;;;;12.48;2.88;;;;;;;;;;5010881;28;20120;-81
2022/04/10 09:18:19;;;;;;;9.65;2.50;;;;;;;;;;5011715;28;20071;-81
2022/04/10 09:21:04;;;;;;;12.77;3.00;;;;;;;;;;5012417;28;20022;-82
2022/04/10 09:23:30;;;;;;;24.23;3.88;;;;;;;;;;5012139;28;20487;-81
2022/04/10 09:25:59;;;;;;;8.95;2.95;;;;;;;;;;5020528;28;20034;-82
2022/04/10 09:28:44;;;;;;;13.32;3.40;;;;;;;;;;5011198;28;20101;-82
2022/04/10 09:31:30;;;;;;;12.02;2.95;;;;;;;;;;5007776;28;20105;-86
2022/04/10 09:33:57;;;;;;;13.63;2.90;;;;;;;;;;5015246;28;20075;-82
2022/04/10 09:36:29;;;;;;;11.88;2.83;;;;;;;;;;5013785;28;20029;-81
2022/04/10 09:38:55;;;;;;;11.40;2.80;;;;;;;;;;5011123;28;20022;-79
2022/04/10 09:41:21;;;;;;;15.40;3.17;;;;;;;;;;5010864;28;20037;-78
2022/04/10 09:43:47;;;;;;;13.38;2.72;;;;;;;;;;5009106;28;20034;-81
2022/04/10 09:46:13;;;;;;;12.10;3.10;;;;;;;;;;5007367;28;20030;-81
2022/04/10 09:48:39;;;;;;;11.30;2.67;;;;;;;;;;5010198;28;20034;-80
2022/04/10 09:51:05;;;;;;;15.52;2.53;;;;;;;;;;5010400;28;20038;-81
2022/04/10 09:53:32;;;;;;;9.02;2.72;;;;;;;;;;5004854;28;20018;-81
2022/04/10 09:55:58;;;;;;;10.45;2.67;;;;;;;;;;5006853;28;20026;-81
2022/04/10 09:58:25;;;;;;;11.40;2.80;;;;;;;;;;5004035;28;20022;-80
2022/04/10 10:00:54;;;;;;;13.98;2.85;;;;;;;;;;5010147;28;20270;-80
2022/04/10 10:03:21;;;;;;;10.25;2.55;;;;;;;;;;5001326;28;20477;-79
2022/04/10 10:05:48;;;;;;;9.73;2.22;;;;;;;;;;5002402;28;20038;-80
2022/04/10 10:08:14;;;;;;;8.55;2.80;;;;;;;;;;5006976;28;20057;-80
2022/04/10 10:10:40;;;;;;;9.55;2.50;;;;;;;;;;4998395;28;20019;-80
2022/04/10 10:13:07;;;;;;;4.65;2.08;;;;;;;;;;4998618;28;20500;-81
2022/04/10 10:15:34;;;;;;;10.20;2.38;;;;;;;;;;5006453;28;20300;-81
2022/04/10 10:18:02;;;;;;;7.50;2.33;;;;;;;;;;4999727;28;20015;-81
2022/04/10 10:20:28;;;;;;;8.07;2.25;;;;;;;;;;5003912;28;20041;-80
2022/04/10 10:22:54;;;;;;;14.30;2.33;;;;;;;;;;5005314;28;20030;-80
2022/04/10 10:25:27;;;;;;;9.48;2.10;;;;;;;;;;5007019;28;20473;-80
2022/04/10 10:28:13;;;;;;;10.75;2.28;;;;;;;;;;5001673;28;20026;-77
2022/04/10 10:30:57;;;;;;;6.20;2.35;;;;;;;;;;5000177;28;20054;-79
2022/04/10 10:33:25;;;;;;;9.43;2.53;;;;;;;;;;5002477;28;20025;-81
2022/04/10 10:35:52;;;;;;;6.90;2.20;;;;;;;;;;5007114;28;20029;-81
2022/04/10 10:38:29;;;;;;;10.70;2.40;;;;;;;;;;5009364;28;20121;-81
2022/04/10 10:41:14;;;;;;;10.05;2.42;;;;;;;;;;5008113;28;20037;-77
2022/04/10 10:43:40;;;;;;;9.32;2.30;;;;;;;;;;5006605;28;20014;-80
2022/04/10 10:46:26;;;;;;;7.05;2.28;;;;;;;;;;5006722;28;20030;-79
2022/04/10 10:49:11;;;;;;;10.63;2.60;;;;;;;;;;4998113;28;20036;-77
2022/04/10 10:51:36;;;;;;;6.88;1.77;;;;;;;;;;5006537;28;20042;-80
2022/04/10 10:54:08;;;;;;;8.40;2.13;;;;;;;;;;4996457;28;20026;-79
2022/04/10 10:56:37;;;;;;;7.47;2.08;;;;;;;;;;5007866;28;20018;-78
2022/04/10 10:59:20;;;;;;;9.68;2.05;;;;;;;;;;4997936;28;20112;-81
2022/04/10 11:01:53;;;;;;;7.97;1.77;;;;;;;;;;4999738;28;20045;-81
2022/04/10 11:04:22;;;;;;;8.15;1.90;;;;;;;;;;4997819;28;20030;-78
2022/04/10 11:06:48;;;;;;;13.18;2.10;;;;;;;;;;5000585;28;20069;-80
2022/04/10 11:09:24;;;;;;;10.35;1.90;;;;;;;;;;5007505;28;20053;-81
2022/04/10 11:11:51;;;;;;;8.15;2.08;;;;;;;;;;5008402;28;20072;-80
2022/04/10 11:14:36;;;;;;;7.82;2.30;;;;;;;;;;5010147;28;20136;-80
2022/04/10 11:17:22;;;;;;;6.68;2.53;;;;;;;;;;5006663;28;20022;-80
2022/04/10 11:19:48;;;;;;;12.15;2.55;;;;;;;;;;5006814;28;20034;-80
2022/04/10 11:22:19;;;;;;;10.60;2.20;;;;;;;;;;5000781;28;20039;-80
2022/04/10 11:24:45;;;;;;;16.25;2.15;;;;;;;;;;5014540;28;20060;-79
2022/04/10 11:27:14;;;;;;;8.73;1.80;;;;;;;;;;5006086;28;20027;-80
2022/04/10 11:29:55;;;;;;;8.43;1.85;;;;;;;;;;5001693;28;20389;-80
2022/04/10 11:32:21;;;;;;;5.53;1.80;;;;;;;;;;5004176;28;20049;-81
2022/04/10 11:34:58;;;;;;;10.13;1.60;;;;;;;;;;5001487;28;20029;-83
2022/04/10 11:37:23;;;;;;;7.03;1.58;;;;;;;;;;5003500;28;20030;-82
2022/04/10 11:39:50;;;;;;;5.20;1.77;;;;;;;;;;5005922;28;20037;-79
2022/04/10 11:42:16;;;;;;;5.00;1.85;;;;;;;;;;4993566;28;20500;-79
2022/04/10 11:44:42;;;;;;;4.22;1.60;;;;;;;;;;5007257;28;20386;-82
2022/04/10 11:47:11;;;;;;;8.77;1.85;;;;;;;;;;5007585;28;20041;-80
2022/04/10 11:49:38;;;;;;;5.88;2.10;;;;;;;;;;5009031;28;20030;-82
2022/04/10 11:52:04;;;;;;;6.63;1.92;;;;;;;;;;5005298;28;20036;-81
2022/04/10 11:54:35;;;;;;;9.07;2.10;;;;;;;;;;5003005;28;20104;-79
2022/04/10 11:57:06;;;;;;;7.32;2.17;;;;;;;;;;5003099;28;20114;-81
2022/04/10 11:59:34;;;;;;;7.30;1.85;;;;;;;;;;5005930;28;20474;-77
2022/04/10 12:02:00;;;;;;;7.38;2.05;;;;;;;;;;5009477;28;20120;-78
2022/04/10 12:04:26;;;;;;;7.03;1.83;;;;;;;;;;5006753;28;20110;-81
2022/04/10 12:06:52;;;;;;;6.35;1.58;;;;;;;;;;4998723;28;20113;-81
2022/04/10 12:09:18;;;;;;;7.40;1.60;;;;;;;;;;5008322;28;20050;-81
2022/04/10 12:11:44;;;;;;;7.47;2.22;;;;;;;;;;5009865;28;20493;-83
2022/04/10 12:14:22;;;;;;;7.00;1.90;;;;;;;;;;5010708;28;20392;-83
2022/04/10 12:16:51;;;;;;;5.55;1.70;;;;;;;;;;5008861;28;20033;-82
2022/04/10 12:19:37;;;;;;;9.10;2.03;;;;;;;;;;5010368;28;20040;-81
2022/04/10 12:22:04;;;;;;;8.50;2.10;;;;;;;;;;5008231;28;20493;-81
2022/04/10 12:24:30;;;;;;;3.95;1.70;;;;;;;;;;5010212;28;20061;-80
2022/04/10 12:26:57;;;;;;;8.05;2.00;;;;;;;;;;5008667;28;20061;-82
2022/04/10 12:29:23;;;;;;;6.88;1.60;;;;;;;;;;5009105;28;20033;-82
2022/04/10 12:31:50;;;;;;;6.75;1.70;;;;;;;;;;5007052;28;20574;-82
2022/04/10 12:34:16;;;;;;;5.50;1.80;;;;;;;;;;5008226;28;20030;-82
2022/04/10 12:36:46;;;;;;;8.18;1.80;;;;;;;;;;5008260;28;20030;-82
2022/04/10 12:39:22;;;;;;;9.98;3.08;;;;;;;;;;5008434;28;20251;-82
2022/04/10 12:41:57;;;;;;;4.75;1.77;;;;;;;;;;5009969;28;20037;-81
2022/04/10 12:44:23;;;;;;;9.18;2.08;;;;;;;;;;5008342;28;20197;-82
2022/04/10 12:46:49;;;;;;;10.65;2.70;;;;;;;;;;5009459;28;20049;-80
2022/04/10 12:49:17;;;;;;;5.65;2.03;;;;;;;;;;5007532;28;20061;-81
2022/04/10 12:51:47;;;;;;;7.70;2.15;;;;;;;;;;5009376;28;20436;-81
2022/04/10 12:54:13;;;;;;;6.33;2.00;;;;;;;;;;5012565;28;20108;-82
2022/04/10 12:56:39;;;;;;;11.57;2.35;;;;;;;;;;5008781;28;20124;-79
2022/04/10 12:59:05;;;;;;;7.57;1.80;;;;;;;;;;5010755;28;20026;-80
2022/04/10 13:01:31;;;;;;;6.75;1.58;;;;;;;;;;5011118;28;20056;-82
2022/04/10 13:04:01;;;;;;;5.07;1.38;;;;;;;;;;5009966;28;20485;-74
2022/04/10 13:06:46;;;;;;;3.38;1.63;;;;;;;;;;5006898;28;20658;-74
2022/04/10 13:09:12;;;;;;;4.22;1.35;;;;;;;;;;5009140;28;20042;-74
2022/04/10 13:11:39;;;;;;;4.57;1.80;;;;;;;;;;5014258;28;20531;-75
2022/04/10 13:14:06;;;;;;;4.78;1.80;;;;;;;;;;5013246;28;20030;-76
2022/04/10 13:16:36;;;;;;;6.75;1.60;;;;;;;;;;5010192;28;20022;-77
2022/04/10 13:19:03;;;;;;;4.43;1.60;;;;;;;;;;5011354;28;20026;-77
2022/04/10 13:21:29;;;;;;;4.82;1.38;;;;;;;;;;5010881;28;20033;-77
2022/04/10 13:23:55;;;;;;;5.68;1.40;;;;;;;;;;5010280;28;20022;-79
2022/04/10 13:26:25;;;;;;;2.72;1.13;;;;;;;;;;5010129;28;20034;-78
2022/04/10 13:28:51;;;;;;;3.38;1.13;;;;;;;;;;5008622;28;20121;-77
2022/04/10 13:31:17;;;;;;;4.63;1.25;;;;;;;;;;5014357;28;20615;-80
2022/04/10 13:33:43;;;;;;;4.70;1.20;;;;;;;;;;5003130;28;20029;-81
2022/04/10 13:36:10;;;;;;;3.80;1.45;;;;;;;;;;5009546;28;20030;-79
2022/04/10 13:38:36;;;;;;;3.38;1.20;;;;;;;;;;5010817;28;20034;-78
2022/04/10 13:41:03;;;;;;;2.85;1.10;;;;;;;;;;5013016;28;20485;-79
2022/04/10 13:43:29;;;;;;;5.40;1.30;;;;;;;;;;5008763;28;20148;-77
2022/04/10 13:45:54;;;;;;;2.80;1.20;;;;;;;;;;5014249;28;20049;-78
2022/04/10 13:48:20;;;;;;;3.28;1.30;;;;;;;;;;5012619;28;20623;-77
2022/04/10 13:50:46;;;;;;;3.35;1.30;;;;;;;;;;5015901;28;20033;-77
2022/04/10 13:53:12;;;;;;;4.20;1.30;;;;;;;;;;5009905;28;20105;-80
2022/04/10 13:55:38;;;;;;;6.72;1.50;;;;;;;;;;5009787;28;20028;-77
2022/04/10 13:58:04;;;;;;;3.40;1.10;;;;;;;;;;5010650;28;20025;-78
2022/04/10 14:00:30;;;;;;;3.67;1.05;;;;;;;;;;5013552;28;20427;-77
2022/04/10 14:02:56;;;;;;;3.85;1.13;;;;;;;;;;5008827;28;20034;-76
2022/04/10 14:05:22;;;;;;;5.00;1.30;;;;;;;;;;5008147;28;20038;-77
2022/04/10 14:07:48;;;;;;;5.63;1.20;;;;;;;;;;5005920;28;20519;-76
2022/04/10 14:10:14;;;;;;;7.75;1.70;;;;;;;;;;5013103;28;20021;-76
2022/04/10 14:12:40;;;;;;;3.00;1.02;;;;;;;;;;5009782;28;20034;-77
2022/04/10 14:15:07;;;;;;;4.80;1.45;;;;;;;;;;5010463;28;20030;-77
2022/04/10 14:17:32;;;;;;;8.68;1.98;;;;;;;;;;5009140;28;20488;-77
2022/04/10 14:19:58;;;;;;;6.18;1.45;;;;;;;;;;5011373;28;20026;-76
2022/04/10 14:22:24;;;;;;;5.47;1.67;;;;;;;;;;5004718;28;20033;-77
2022/04/10 14:24:50;;;;;;;3.80;1.27;;;;;;;;;;5014999;28;20044;-76
2022/04/10 14:27:16;;;;;;;1.80;1.08;;;;;;;;;;5010849;28;20029;-76
2022/04/10 14:29:42;;;;;;;2.38;1.08;;;;;;;;;;5005927;28;20034;-76
2022/04/10 14:32:08;;;;;;;2.50;1.00;;;;;;;;;;5010610;28;20238;-76
2022/04/10 14:34:35;;;;;;;2.13;1.02;;;;;;;;;;5009195;28;20045;-76
2022/04/10 14:37:01;;;;;;;2.22;1.00;;;;;;;;;;5007217;28;20030;-75
2022/04/10 14:39:27;;;;;;;3.03;1.25;;;;;;;;;;5011430;28;20036;-75
2022/04/10 14:41:54;;;;;;;5.60;1.20;;;;;;;;;;5005087;28;20118;-75